Ohio County Airport

About
Name: Ohio County Airport
Identifier:  HLG/KHLG
Local Time:  25. Aug 04:58 EDT
Location
Flights per Day
0 flights
Distance: 1,104km (686mi)
Punctuality
0% (0 flights per day delayed)
Delay Average: 16 minutes
Current Weather
 14 C (Humidity: 71%)
  6kt (11km/h / 6mph) from 60°
  16km (10 mi.)
 
 METAR KHLG 250753Z AUTO 06006KT 10SM CLR 14/09 A3021 RMK AO2 SLP227 T01390094

Current Flights

Departures
Number Departure To Airline
Arrivals
Number Arrival From Airline

Current Delays

Departures
N/A
Arrivals
N/A

Destinations

Top Destinations
Airport Flights
per week
Seats
per week
  Gaithersburg (GAI) 0 - 0 0
  Manassas (MNZ) 0 - 0 0
  Trenton (TTN) 0 - 0 0
  Bloomington (BMG) 0 - 0 0
  Charleston (CRW) 0 - 0 0
  Asheville (AVL) 0 - 0 0
  Des Moines (DSM) 0 - 0 0

Airlines & Planes

Top Airlines
Airline Flights
per Day
Seats
per Day
Nordwind Airlines 0 -
  Nolinor Aviation 0 -
  National Airlines 0 -
Jet Charter Inc ( Franklin Lakes Nj ) 0 -
Delta Private Jets 0 -
Top Plane Types
Model Flights Seats
Cirrus SR22 0.1/day - 0
Cessna C172 0.1/day - 0
Cessna C182 0.0/day - 0
Cessna C25B 0.0/day - 0